createdAt,value
2019-06-20T00:02:08.640Z,3.80
2019-06-20T00:04:37.981Z,5.13
2019-06-20T00:07:07.270Z,3.83
2019-06-20T00:09:36.568Z,3.10
2019-06-20T00:12:06.001Z,4.37
2019-06-20T00:14:35.421Z,4.50
2019-06-20T00:17:04.757Z,4.87
2019-06-20T00:19:34.145Z,4.30
2019-06-20T00:22:03.542Z,5.10
2019-06-20T00:24:32.825Z,4.30
2019-06-20T00:27:02.101Z,4.80
2019-06-20T00:29:38.701Z,5.30
2019-06-20T00:32:08.013Z,5.60
2019-06-20T00:34:37.062Z,4.57
2019-06-20T00:37:06.490Z,6.50
2019-06-20T00:39:35.793Z,5.53
2019-06-20T00:42:05.085Z,5.57
2019-06-20T00:44:34.470Z,5.70
2019-06-20T00:47:03.687Z,6.07
2019-06-20T00:49:33.022Z,6.10
2019-06-20T00:52:02.318Z,6.50
2019-06-20T00:54:31.616Z,6.70
2019-06-20T00:57:00.930Z,6.50
2019-06-20T00:59:30.333Z,6.07
2019-06-20T01:01:59.510Z,6.47
2019-06-20T01:04:28.968Z,6.10
2019-06-20T01:06:58.325Z,6.50
2019-06-20T01:09:27.522Z,7.10
2019-06-20T01:11:57.756Z,6.20
2019-06-20T01:14:27.178Z,7.30
2019-06-20T01:16:56.460Z,7.77
2019-06-20T01:19:25.763Z,7.87
2019-06-20T01:21:55.177Z,7.17
2019-06-20T01:24:24.510Z,7.30
2019-06-20T01:26:53.789Z,6.43
2019-06-20T01:29:23.170Z,7.70
2019-06-20T01:31:52.623Z,6.77
2019-06-20T01:34:21.945Z,7.57
2019-06-20T01:36:51.247Z,6.63
2019-06-20T01:39:20.566Z,7.47
2019-06-20T01:41:49.789Z,7.07
2019-06-20T01:44:19.154Z,6.67
2019-06-20T01:46:48.392Z,6.50
2019-06-20T01:49:17.655Z,6.13
2019-06-20T01:51:46.855Z,6.97
2019-06-20T01:54:16.175Z,7.97
2019-06-20T01:56:45.572Z,6.60
2019-06-20T01:59:15.003Z,7.03
2019-06-20T02:01:44.294Z,6.10
2019-06-20T02:04:13.545Z,6.60
2019-06-20T02:06:42.801Z,7.23
2019-06-20T02:09:13.493Z,6.93
2019-06-20T02:11:42.832Z,6.97
2019-06-20T02:14:12.214Z,7.30
2019-06-20T02:16:41.531Z,6.90
2019-06-20T02:19:10.734Z,6.30
2019-06-20T02:21:40.026Z,6.40
2019-06-20T02:24:09.336Z,5.97
2019-06-20T02:26:38.531Z,6.30
2019-06-20T02:29:07.885Z,6.10
2019-06-20T02:31:37.201Z,6.57
2019-06-20T02:34:06.412Z,5.93
2019-06-20T02:36:35.805Z,7.03
2019-06-20T02:39:06.470Z,5.47
2019-06-20T02:41:35.889Z,6.43
2019-06-20T02:44:06.001Z,4.67
2019-06-20T02:46:35.299Z,5.40
2019-06-20T02:49:04.679Z,5.40
2019-06-20T02:51:36.208Z,6.00
2019-06-20T02:54:05.549Z,6.93
2019-06-20T02:56:34.719Z,5.40
2019-06-20T02:59:03.996Z,5.70
2019-06-20T03:01:33.208Z,4.90
2019-06-20T03:04:02.412Z,5.30
2019-06-20T03:06:31.675Z,5.93
2019-06-20T03:09:01.008Z,5.87
2019-06-20T03:11:30.320Z,5.80
2019-06-20T03:13:59.635Z,5.53
2019-06-20T03:16:28.831Z,6.60
2019-06-20T03:18:58.027Z,6.00
2019-06-20T03:21:27.289Z,5.93
2019-06-20T03:23:56.515Z,5.03
2019-06-20T03:26:25.712Z,5.60
2019-06-20T03:28:55.077Z,6.40
2019-06-20T03:31:24.375Z,6.73
2019-06-20T03:33:53.607Z,6.17
2019-06-20T03:36:22.858Z,7.00
2019-06-20T03:38:52.041Z,6.50
2019-06-20T03:41:21.247Z,7.27
2019-06-20T03:43:50.712Z,7.23
2019-06-20T03:46:19.879Z,8.10
2019-06-20T03:48:50.752Z,6.87
2019-06-20T03:51:20.013Z,8.40
2019-06-20T03:53:49.185Z,7.40
2019-06-20T03:56:19.959Z,7.20
2019-06-20T03:58:49.366Z,6.47
2019-06-20T04:01:18.814Z,7.03
2019-06-20T04:03:48.086Z,6.83
2019-06-20T04:06:17.511Z,8.00
2019-06-20T04:08:46.850Z,6.80
2019-06-20T04:11:16.160Z,7.07
2019-06-20T04:13:45.324Z,7.10
2019-06-20T04:16:14.622Z,6.20
2019-06-20T04:18:43.953Z,6.60
2019-06-20T04:21:13.303Z,7.27
2019-06-20T04:23:42.634Z,7.13
2019-06-20T04:26:11.803Z,6.33
2019-06-20T04:28:41.982Z,6.53
2019-06-20T04:31:11.299Z,7.67
2019-06-20T04:33:40.572Z,6.97
2019-06-20T04:36:09.846Z,6.57
2019-06-20T04:38:39.091Z,7.60
2019-06-20T04:41:08.460Z,7.43
2019-06-20T04:43:39.155Z,7.40
2019-06-20T04:46:09.867Z,7.47
2019-06-20T04:48:39.083Z,6.20
2019-06-20T04:51:10.674Z,7.40
2019-06-20T04:53:39.796Z,6.67
2019-06-20T04:56:09.119Z,9.40
2019-06-20T04:58:38.398Z,6.90
2019-06-20T05:01:14.077Z,7.53
2019-06-20T05:03:43.531Z,5.90
2019-06-20T05:06:12.741Z,6.83
2019-06-20T05:08:41.977Z,7.00
2019-06-20T05:11:11.431Z,6.30
2019-06-20T05:13:40.642Z,7.70
2019-06-20T05:16:09.937Z,7.80
2019-06-20T05:18:39.353Z,6.10
2019-06-20T05:21:08.555Z,6.80
2019-06-20T05:23:37.786Z,6.53
2019-06-20T05:26:07.020Z,7.13
2019-06-20T05:28:36.193Z,5.83
2019-06-20T05:31:05.699Z,4.90
2019-06-20T05:33:34.998Z,6.20
2019-06-20T05:36:04.459Z,5.97
2019-06-20T05:38:33.635Z,6.43
2019-06-20T05:41:03.013Z,5.57
2019-06-20T05:43:32.199Z,5.27
2019-06-20T05:46:09.732Z,5.80
2019-06-20T05:48:32.526Z,5.67
2019-06-20T05:51:01.833Z,5.50
2019-06-20T05:53:31.060Z,6.97
2019-06-20T05:56:00.320Z,5.73
2019-06-20T05:58:29.556Z,7.37
2019-06-20T06:00:58.734Z,5.33
2019-06-20T06:03:28.200Z,5.60
2019-06-20T06:05:57.520Z,5.97
2019-06-20T06:08:26.829Z,5.40
2019-06-20T06:10:56.248Z,6.00
2019-06-20T06:13:25.553Z,6.40
2019-06-20T06:15:54.872Z,5.90
2019-06-20T06:18:24.259Z,4.40
2019-06-20T06:20:53.454Z,5.00
2019-06-20T06:23:22.737Z,5.50
2019-06-20T06:25:52.045Z,4.77
2019-06-20T06:28:21.335Z,5.40
2019-06-20T06:30:50.558Z,4.80
2019-06-20T06:33:19.851Z,4.57
2019-06-20T06:35:49.794Z,4.77
2019-06-20T06:38:21.752Z,4.93
2019-06-20T06:40:51.139Z,6.07
2019-06-20T06:43:20.220Z,4.70
2019-06-20T06:45:50.095Z,4.50
2019-06-20T06:48:19.637Z,5.00
2019-06-20T06:50:48.840Z,3.80
2019-06-20T06:53:18.182Z,3.87
2019-06-20T06:55:47.932Z,3.60
2019-06-20T06:58:18.656Z,4.17
2019-06-20T07:00:47.922Z,3.43
2019-06-20T07:03:17.261Z,3.70
2019-06-20T07:05:46.878Z,3.93
2019-06-20T07:08:16.189Z,3.87
2019-06-20T07:10:45.786Z,2.80
2019-06-20T07:13:15.002Z,3.70
2019-06-20T07:15:44.492Z,4.20
2019-06-20T07:18:13.855Z,3.97
2019-06-20T07:20:43.041Z,3.67
2019-06-20T07:23:12.380Z,3.90
2019-06-20T07:25:41.752Z,3.30
2019-06-20T07:28:11.009Z,2.23
2019-06-20T07:30:40.340Z,3.60
2019-06-20T07:33:09.713Z,3.17
2019-06-20T07:35:41.844Z,2.93
2019-06-20T07:38:10.330Z,2.90
2019-06-20T07:40:39.522Z,3.17
2019-06-20T07:43:08.826Z,3.20
2019-06-20T07:45:38.192Z,2.20
2019-06-20T07:48:07.455Z,2.80
2019-06-20T07:50:39.333Z,1.63
2019-06-20T07:53:07.641Z,2.40
2019-06-20T07:55:36.738Z,1.97
2019-06-20T07:58:05.962Z,2.20
2019-06-20T08:00:35.237Z,1.77
2019-06-20T08:03:04.678Z,2.00
2019-06-20T08:05:33.883Z,2.63
2019-06-20T08:08:03.729Z,1.83
2019-06-20T08:10:32.917Z,2.60
2019-06-20T08:13:02.116Z,1.90
2019-06-20T08:15:31.336Z,2.23
2019-06-20T08:18:13.535Z,1.90
2019-06-20T08:20:42.885Z,1.60
2019-06-20T08:23:12.025Z,2.30
2019-06-20T08:25:41.241Z,1.70
2019-06-20T08:28:10.404Z,2.60
2019-06-20T08:30:39.732Z,2.17
2019-06-20T08:33:11.849Z,2.00
2019-06-20T08:35:42.956Z,2.33
2019-06-20T08:38:12.803Z,1.80
2019-06-20T08:40:41.991Z,1.77
2019-06-20T08:43:11.395Z,1.77
2019-06-20T08:45:40.689Z,1.97
2019-06-20T08:48:09.862Z,2.07
2019-06-20T08:50:39.445Z,2.17
2019-06-20T08:53:08.803Z,1.80
2019-06-20T08:55:38.036Z,1.90
2019-06-20T08:58:07.322Z,1.67
2019-06-20T09:00:37.069Z,1.53
2019-06-20T09:03:06.864Z,1.30
2019-06-20T09:05:36.153Z,1.80
2019-06-20T09:08:11.160Z,2.00
2019-06-20T09:10:43.486Z,1.40
2019-06-20T09:13:12.890Z,1.37
2019-06-20T09:15:42.420Z,1.50
2019-06-20T09:18:11.678Z,1.40
2019-06-20T09:20:41.103Z,1.60
2019-06-20T09:23:10.406Z,1.10
2019-06-20T09:25:39.815Z,1.60
2019-06-20T09:28:09.127Z,1.30
2019-06-20T09:30:38.422Z,1.33
2019-06-20T09:33:07.813Z,1.27
2019-06-20T09:35:37.041Z,1.60
2019-06-20T09:38:06.272Z,1.77
2019-06-20T09:40:35.557Z,1.43
2019-06-20T09:43:04.876Z,1.70
2019-06-20T09:45:34.125Z,1.80
2019-06-20T09:48:03.398Z,1.10
2019-06-20T09:50:32.832Z,1.23
2019-06-20T09:53:02.219Z,1.30
2019-06-20T09:55:31.620Z,1.63
2019-06-20T09:58:00.808Z,1.93
2019-06-20T10:00:30.041Z,1.50
2019-06-20T10:02:59.354Z,1.10
2019-06-20T10:05:28.949Z,1.00
2019-06-20T10:07:58.257Z,1.73
2019-06-20T10:10:30.492Z,1.33
2019-06-20T10:12:59.724Z,1.00
2019-06-20T10:15:32.747Z,0.90
2019-06-20T10:18:02.215Z,1.07
2019-06-20T10:20:31.411Z,0.87
2019-06-20T10:23:00.610Z,0.90
2019-06-20T10:25:30.014Z,0.83
2019-06-20T10:27:59.333Z,1.17
2019-06-20T10:30:28.704Z,1.17
2019-06-20T10:32:58.122Z,0.60
2019-06-20T10:35:27.242Z,1.10
2019-06-20T10:37:57.229Z,0.57
2019-06-20T10:40:26.656Z,0.87
2019-06-20T10:42:56.920Z,1.10
2019-06-20T10:45:26.562Z,1.10
2019-06-20T10:47:56.200Z,1.00
2019-06-20T10:50:25.778Z,0.93
2019-06-20T10:52:55.820Z,0.70
2019-06-20T10:55:25.472Z,0.70
2019-06-20T10:57:55.227Z,1.27
2019-06-20T11:00:32.922Z,1.70
2019-06-20T11:02:56.956Z,1.30
2019-06-20T11:05:26.300Z,0.60
2019-06-20T11:07:55.706Z,0.50
2019-06-20T11:10:25.032Z,0.60
2019-06-20T11:12:56.224Z,0.50
2019-06-20T11:15:25.142Z,0.40
2019-06-20T11:17:56.736Z,0.73
2019-06-20T11:20:27.479Z,0.57
2019-06-20T11:22:56.692Z,0.60
2019-06-20T11:25:26.196Z,1.10
2019-06-20T11:27:55.546Z,0.80
2019-06-20T11:30:45.001Z,0.63
2019-06-20T11:33:01.637Z,0.60
2019-06-20T11:35:31.001Z,0.50
2019-06-20T11:38:00.215Z,0.93
2019-06-20T11:40:29.434Z,0.47
2019-06-20T11:42:58.798Z,0.50
2019-06-20T11:45:28.137Z,0.40
2019-06-20T11:47:57.343Z,0.50
2019-06-20T11:50:26.601Z,0.70
2019-06-20T11:52:55.912Z,0.60
2019-06-20T11:55:25.142Z,0.60
2019-06-20T11:57:56.823Z,0.70
2019-06-20T12:00:26.310Z,0.80
2019-06-20T12:02:55.571Z,0.60
2019-06-20T12:05:24.968Z,0.80
2019-06-20T12:07:54.624Z,0.90
2019-06-20T12:10:24.534Z,0.90
2019-06-20T12:12:54.208Z,0.87
2019-06-20T12:15:23.723Z,1.13
2019-06-20T12:17:55.532Z,0.70
2019-06-20T12:20:24.762Z,0.90
2019-06-20T12:22:54.449Z,1.10
2019-06-20T12:25:32.236Z,0.40
2019-06-20T12:28:01.732Z,0.60
2019-06-20T12:30:32.431Z,0.40
2019-06-20T12:33:01.915Z,0.60
2019-06-20T12:35:31.416Z,0.30
2019-06-20T12:38:00.747Z,0.57
2019-06-20T12:40:30.217Z,0.60
2019-06-20T12:42:59.824Z,0.63
2019-06-20T12:45:29.336Z,0.60
2019-06-20T12:47:58.827Z,0.77
2019-06-20T12:50:28.504Z,0.40
2019-06-20T12:52:58.739Z,0.60
2019-06-20T12:55:28.215Z,0.60
